createdAt,value
2017-11-03T00:00:27.168Z,8.87
2017-11-03T00:02:56.191Z,11.10
2017-11-03T00:05:24.638Z,12.70
2017-11-03T00:07:53.005Z,11.00
2017-11-03T00:10:21.329Z,12.13
2017-11-03T00:12:49.618Z,11.83
2017-11-03T00:15:18.164Z,15.33
2017-11-03T00:17:46.437Z,13.17
2017-11-03T00:20:14.939Z,12.23
2017-11-03T00:22:43.488Z,14.83
2017-11-03T00:25:11.865Z,10.47
2017-11-03T00:27:40.220Z,10.07
2017-11-03T00:30:08.824Z,10.23
2017-11-03T00:32:37.100Z,13.67
2017-11-03T00:35:05.408Z,11.87
2017-11-03T00:37:33.831Z,13.30
2017-11-03T00:40:02.214Z,14.33
2017-11-03T00:42:30.713Z,11.20
2017-11-03T00:44:59.065Z,10.60
2017-11-03T00:47:27.524Z,11.17
2017-11-03T00:49:55.840Z,10.17
2017-11-03T00:52:24.381Z,9.97
2017-11-03T00:54:52.697Z,12.37
2017-11-03T00:57:21.214Z,10.60
2017-11-03T00:59:49.522Z,11.27
2017-11-03T01:02:17.905Z,9.53
2017-11-03T01:04:46.179Z,12.27
2017-11-03T01:07:14.585Z,8.90
2017-11-03T01:09:42.984Z,13.13
2017-11-03T01:12:11.611Z,10.33
2017-11-03T01:14:40.148Z,9.30
2017-11-03T01:17:08.495Z,11.30
2017-11-03T01:19:36.812Z,9.70
2017-11-03T01:22:05.271Z,10.53
2017-11-03T01:24:33.617Z,8.23
2017-11-03T01:27:02.242Z,11.00
2017-11-03T01:29:30.658Z,9.53
2017-11-03T01:31:59.004Z,10.87
2017-11-03T01:34:27.463Z,10.30
2017-11-03T01:36:55.764Z,11.43
2017-11-03T01:39:24.215Z,9.20
2017-11-03T01:41:52.555Z,9.10
2017-11-03T01:44:20.980Z,8.70
2017-11-03T01:46:49.293Z,12.03
2017-11-03T01:49:17.708Z,9.63
2017-11-03T01:51:46.024Z,11.40
2017-11-03T01:54:14.340Z,8.93
2017-11-03T01:56:42.711Z,9.83
2017-11-03T01:59:11.024Z,10.80
2017-11-03T02:01:39.348Z,9.33
2017-11-03T02:04:08.415Z,7.20
2017-11-03T02:06:36.771Z,13.20
2017-11-03T02:09:05.706Z,10.43
2017-11-03T02:11:34.069Z,9.33
2017-11-03T02:14:02.364Z,10.03
2017-11-03T02:16:30.844Z,10.63
2017-11-03T02:18:59.188Z,10.30
2017-11-03T02:21:30.271Z,9.20
2017-11-03T02:23:58.723Z,10.60
2017-11-03T02:26:27.095Z,8.03
2017-11-03T02:28:55.413Z,11.37
2017-11-03T02:31:23.862Z,9.50
2017-11-03T02:33:52.152Z,8.67
2017-11-03T02:36:20.519Z,9.30
2017-11-03T02:38:48.892Z,11.33
2017-11-03T02:41:17.244Z,8.13
2017-11-03T02:43:45.521Z,10.87
2017-11-03T02:46:13.836Z,10.30
2017-11-03T02:48:42.119Z,9.00
2017-11-03T02:51:10.583Z,10.47
2017-11-03T02:53:38.985Z,8.30
2017-11-03T02:56:07.337Z,7.57
2017-11-03T02:58:35.923Z,8.90
2017-11-03T03:01:04.544Z,9.97
2017-11-03T03:03:32.804Z,8.40
2017-11-03T03:06:01.127Z,13.30
2017-11-03T03:08:29.408Z,7.57
2017-11-03T03:10:57.744Z,10.13
2017-11-03T03:13:26.130Z,10.60
2017-11-03T03:15:54.579Z,8.70
2017-11-03T03:18:23.015Z,8.40
2017-11-03T03:20:51.319Z,10.80
2017-11-03T03:23:19.709Z,8.40
2017-11-03T03:25:48.127Z,9.83
2017-11-03T03:28:16.552Z,7.77
2017-11-03T03:30:44.886Z,8.97
2017-11-03T03:33:13.163Z,7.30
2017-11-03T03:35:41.608Z,7.00
2017-11-03T03:38:09.887Z,8.93
2017-11-03T03:40:38.423Z,8.83
2017-11-03T03:43:06.989Z,8.73
2017-11-03T03:45:35.408Z,8.47
2017-11-03T03:48:03.795Z,7.10
2017-11-03T03:50:32.100Z,9.30
2017-11-03T03:53:00.519Z,8.03
2017-11-03T03:55:28.823Z,7.23
2017-11-03T03:57:57.128Z,6.97
2017-11-03T04:00:25.467Z,7.20
2017-11-03T04:02:53.840Z,10.03
2017-11-03T04:05:22.152Z,7.63
2017-11-03T04:07:50.452Z,10.00
2017-11-03T04:10:18.910Z,10.47
2017-11-03T04:12:47.269Z,8.70
2017-11-03T04:15:15.681Z,14.13
2017-11-03T04:17:44.227Z,7.17
2017-11-03T04:20:12.623Z,6.57
2017-11-03T04:22:40.924Z,8.83
2017-11-03T04:25:09.228Z,6.70
2017-11-03T04:27:37.564Z,8.17
2017-11-03T04:30:05.927Z,7.63
2017-11-03T04:32:34.320Z,10.20
2017-11-03T04:35:02.591Z,6.60
2017-11-03T04:37:31.058Z,9.07
2017-11-03T04:39:59.320Z,11.97
2017-11-03T04:42:27.656Z,6.87
2017-11-03T04:44:56.015Z,8.10
2017-11-03T04:47:24.364Z,6.50
2017-11-03T04:49:52.676Z,9.70
2017-11-03T04:52:21.035Z,12.70
2017-11-03T04:54:49.329Z,12.30
2017-11-03T04:57:17.653Z,7.20
2017-11-03T04:59:45.981Z,7.70
2017-11-03T05:02:14.760Z,8.07
2017-11-03T05:04:43.192Z,9.30
2017-11-03T05:07:11.501Z,8.20
2017-11-03T05:09:39.808Z,7.03
2017-11-03T05:12:08.263Z,7.90
2017-11-03T05:14:36.581Z,6.80
2017-11-03T05:17:04.992Z,8.67
2017-11-03T05:19:33.260Z,8.40
2017-11-03T05:22:01.612Z,9.50
2017-11-03T05:24:29.884Z,7.57
2017-11-03T05:26:58.257Z,7.70
2017-11-03T05:29:27.074Z,10.40
2017-11-03T05:31:55.606Z,8.30
2017-11-03T05:34:24.004Z,9.50
2017-11-03T05:36:52.342Z,8.40
2017-11-03T05:39:20.654Z,11.03
2017-11-03T05:41:48.964Z,11.13
2017-11-03T05:44:17.272Z,9.83
2017-11-03T05:46:45.720Z,10.23
2017-11-03T05:49:14.109Z,11.53
2017-11-03T05:51:42.444Z,10.83
2017-11-03T05:54:10.751Z,9.27
2017-11-03T05:56:39.078Z,10.67
2017-11-03T05:59:07.397Z,13.93
2017-11-03T06:01:35.837Z,8.40
2017-11-03T06:04:04.192Z,10.03
2017-11-03T06:06:32.522Z,17.57
2017-11-03T06:09:00.773Z,9.50
2017-11-03T06:11:29.344Z,17.40
2017-11-03T06:13:57.613Z,13.43
2017-11-03T06:16:25.930Z,16.47
2017-11-03T06:18:54.304Z,10.53
2017-11-03T06:21:22.701Z,12.80
2017-11-03T06:23:51.108Z,16.50
2017-11-03T06:26:19.611Z,9.33
2017-11-03T06:28:47.912Z,19.53
2017-11-03T06:31:16.371Z,16.50
2017-11-03T06:33:44.697Z,18.30
2017-11-03T06:36:13.088Z,15.00
2017-11-03T06:38:41.631Z,11.77
2017-11-03T06:41:09.950Z,17.47
2017-11-03T06:43:38.900Z,15.73
2017-11-03T06:46:07.263Z,27.83
2017-11-03T06:48:35.642Z,14.67
2017-11-03T06:51:04.016Z,23.27
2017-11-03T06:53:32.303Z,22.57
2017-11-03T06:56:00.809Z,19.77
2017-11-03T06:58:29.131Z,20.87
2017-11-03T07:00:57.495Z,18.13
2017-11-03T07:03:25.876Z,25.30
2017-11-03T07:05:54.287Z,18.17
2017-11-03T07:08:22.692Z,18.13
2017-11-03T07:10:51.003Z,18.77
2017-11-03T07:13:19.292Z,18.43
2017-11-03T07:15:47.803Z,17.03
2017-11-03T07:18:16.199Z,18.30
2017-11-03T07:20:45.478Z,18.50
2017-11-03T07:23:15.284Z,15.13
2017-11-03T07:25:45.339Z,17.00
2017-11-03T07:28:15.001Z,16.90
2017-11-03T07:30:44.063Z,13.90
2017-11-03T07:33:12.561Z,14.60
2017-11-03T07:35:41.462Z,15.93
2017-11-03T07:38:09.812Z,10.97
2017-11-03T07:40:39.812Z,12.10
2017-11-03T07:43:08.446Z,15.53
2017-11-03T07:45:37.844Z,11.90
2017-11-03T07:48:07.100Z,13.00
2017-11-03T07:50:35.714Z,13.30
2017-11-03T07:53:04.468Z,16.10
2017-11-03T07:55:33.853Z,13.57
2017-11-03T07:58:02.681Z,11.57
2017-11-03T08:00:31.855Z,10.73
2017-11-03T08:03:01.076Z,12.80
2017-11-03T08:05:32.156Z,11.73
2017-11-03T08:08:01.701Z,9.00
2017-11-03T08:10:30.755Z,15.87
2017-11-03T08:12:59.176Z,11.50
2017-11-03T08:15:27.860Z,13.00
2017-11-03T08:17:56.923Z,12.20
2017-11-03T08:20:27.992Z,11.27
2017-11-03T08:22:56.864Z,12.37
2017-11-03T08:25:25.582Z,14.57
2017-11-03T08:27:56.085Z,10.90
2017-11-03T08:30:24.935Z,20.13
2017-11-03T08:32:53.325Z,12.53
2017-11-03T08:35:21.712Z,14.20
2017-11-03T08:37:50.021Z,12.93
2017-11-03T08:40:18.368Z,14.77
2017-11-03T08:42:46.820Z,12.70
2017-11-03T08:45:15.157Z,15.17
2017-11-03T08:47:44.143Z,13.00
2017-11-03T08:50:12.494Z,11.60
2017-11-03T08:52:40.959Z,16.73
2017-11-03T08:55:09.359Z,16.73
2017-11-03T08:57:37.689Z,15.50
2017-11-03T09:00:06.752Z,14.20
2017-11-03T09:02:35.243Z,20.73
2017-11-03T09:05:03.828Z,16.30
2017-11-03T09:07:32.306Z,18.43
2017-11-03T09:10:00.647Z,18.00
2017-11-03T09:12:29.085Z,17.43
2017-11-03T09:14:57.418Z,23.40
2017-11-03T09:17:25.785Z,23.40
2017-11-03T09:19:54.647Z,17.60
2017-11-03T09:22:23.155Z,18.00
2017-11-03T09:24:51.653Z,14.93
2017-11-03T09:27:20.088Z,19.57
2017-11-03T09:29:48.420Z,18.67
2017-11-03T09:32:16.809Z,14.63
2017-11-03T09:34:45.099Z,20.40
2017-11-03T09:37:13.600Z,18.33
2017-11-03T09:39:41.904Z,17.93
2017-11-03T09:42:10.250Z,17.87
2017-11-03T09:44:38.616Z,14.53
2017-11-03T09:47:07.055Z,21.93
2017-11-03T09:49:35.383Z,17.60
2017-11-03T09:52:03.708Z,24.97
2017-11-03T09:54:31.993Z,15.83
2017-11-03T09:57:00.309Z,19.07
2017-11-03T09:59:28.569Z,18.87
2017-11-03T10:01:56.948Z,15.10
2017-11-03T10:04:25.231Z,18.37
2017-11-03T10:06:53.568Z,14.90
2017-11-03T10:09:22.015Z,20.43
2017-11-03T10:11:50.529Z,16.33
2017-11-03T10:14:18.811Z,12.27
2017-11-03T10:16:47.167Z,16.17
2017-11-03T10:19:15.565Z,17.93
2017-11-03T10:21:43.888Z,12.40
2017-11-03T10:24:12.172Z,21.00
2017-11-03T10:26:40.513Z,13.67
2017-11-03T10:29:08.863Z,18.23
2017-11-03T10:31:37.260Z,15.93
2017-11-03T10:34:05.603Z,16.43
2017-11-03T10:36:33.895Z,18.40
2017-11-03T10:39:02.384Z,15.60
2017-11-03T10:41:30.672Z,12.97
2017-11-03T10:43:59.797Z,12.33
2017-11-03T10:46:28.229Z,23.60
2017-11-03T10:48:56.711Z,20.50
2017-11-03T10:51:25.235Z,20.63
2017-11-03T10:53:53.660Z,31.67
2017-11-03T10:56:22.188Z,32.13
2017-11-03T10:58:50.452Z,34.73
2017-11-03T11:01:18.928Z,33.40
2017-11-03T11:03:47.268Z,32.03
2017-11-03T11:06:15.624Z,41.90
2017-11-03T11:08:44.080Z,38.53
2017-11-03T11:11:12.383Z,35.10
2017-11-03T11:13:40.833Z,33.73
2017-11-03T11:16:09.211Z,34.00
2017-11-03T11:18:37.565Z,31.20
2017-11-03T11:21:05.992Z,27.13
2017-11-03T11:23:34.546Z,26.37
2017-11-03T11:26:03.152Z,30.37
2017-11-03T11:28:31.529Z,26.10
2017-11-03T11:30:59.942Z,24.27
2017-11-03T11:33:28.324Z,25.57
2017-11-03T11:35:56.640Z,22.83
2017-11-03T11:38:24.980Z,19.20
2017-11-03T11:40:53.356Z,23.27
2017-11-03T11:43:21.703Z,21.10
2017-11-03T11:45:50.141Z,20.50
2017-11-03T11:48:18.495Z,17.70
2017-11-03T11:50:47.124Z,17.43
2017-11-03T11:53:15.560Z,14.10
2017-11-03T11:55:44.076Z,15.60
2017-11-03T11:58:14.047Z,14.43
2017-11-03T12:00:42.988Z,16.27
2017-11-03T12:03:11.656Z,19.20
2017-11-03T12:05:43.660Z,13.43
2017-11-03T12:08:12.773Z,14.20
2017-11-03T12:10:41.187Z,16.13
2017-11-03T12:13:09.746Z,12.93
2017-11-03T12:15:38.279Z,14.67
2017-11-03T12:18:06.596Z,10.53
2017-11-03T12:20:34.940Z,11.73
2017-11-03T12:23:03.827Z,14.77
2017-11-03T12:25:32.231Z,12.70
2017-11-03T12:28:01.260Z,13.83
2017-11-03T12:30:30.063Z,12.10
2017-11-03T12:32:58.723Z,11.60
2017-11-03T12:35:27.116Z,14.60
2017-11-03T12:37:55.421Z,13.53
2017-11-03T12:40:23.779Z,12.20
2017-11-03T12:42:52.043Z,11.00
2017-11-03T12:45:20.363Z,12.33
2017-11-03T12:47:48.835Z,13.77
2017-11-03T12:50:17.172Z,12.87
2017-11-03T12:52:45.536Z,15.40
2017-11-03T12:55:14.062Z,15.73
2017-11-03T12:57:42.338Z,8.70
2017-11-03T13:00:10.763Z,12.20
2017-11-03T13:02:40.486Z,12.70
2017-11-03T13:05:09.229Z,19.47
2017-11-03T13:07:40.749Z,17.27
2017-11-03T13:10:11.745Z,13.97
2017-11-03T13:12:40.503Z,12.97
2017-11-03T13:15:10.634Z,12.70
2017-11-03T13:17:41.684Z,12.53
2017-11-03T13:20:10.764Z,8.90
2017-11-03T13:22:40.059Z,9.60
2017-11-03T13:25:08.961Z,8.17
2017-11-03T13:27:38.163Z,10.20
2017-11-03T13:30:09.307Z,7.47
2017-11-03T13:32:38.332Z,10.57
2017-11-03T13:35:07.508Z,10.00
2017-11-03T13:37:36.244Z,14.60
2017-11-03T13:40:05.377Z,10.10
2017-11-03T13:42:33.993Z,7.07
2017-11-03T13:45:04.210Z,9.27
2017-11-03T13:47:33.744Z,11.30
2017-11-03T13:50:03.223Z,8.33
2017-11-03T13:52:32.270Z,9.10
2017-11-03T13:55:02.972Z,7.20
2017-11-03T13:57:31.446Z,9.27
2017-11-03T14:00:00.280Z,10.73
2017-11-03T14:02:30.605Z,6.37
2017-11-03T14:04:59.432Z,8.17
2017-11-03T14:07:27.913Z,8.80
2017-11-03T14:09:56.421Z,6.97
2017-11-03T14:12:25.435Z,8.03
2017-11-03T14:14:53.818Z,8.20
2017-11-03T14:17:22.821Z,5.83
2017-11-03T14:19:51.595Z,7.50
2017-11-03T14:22:20.099Z,10.20
2017-11-03T14:24:48.815Z,5.27
2017-11-03T14:27:17.224Z,8.30
2017-11-03T14:29:45.605Z,6.57
2017-11-03T14:32:14.556Z,10.43
2017-11-03T14:34:43.472Z,6.00
2017-11-03T14:37:11.930Z,8.40
2017-11-03T14:39:40.532Z,8.27
2017-11-03T14:42:09.244Z,8.10
2017-11-03T14:44:37.684Z,9.67
2017-11-03T14:47:05.996Z,8.40
2017-11-03T14:49:35.083Z,5.50
2017-11-03T14:52:03.536Z,6.67
2017-11-03T14:54:31.900Z,7.07
2017-11-03T14:57:00.217Z,6.97
2017-11-03T14:59:29.352Z,5.60
2017-11-03T15:01:57.768Z,6.03
2017-11-03T15:04:26.143Z,6.30
2017-11-03T15:06:54.455Z,6.20
2017-11-03T15:09:22.892Z,6.73
2017-11-03T15:11:51.343Z,5.57
2017-11-03T15:14:19.660Z,6.50
2017-11-03T15:16:48.243Z,6.37
2017-11-03T15:19:19.144Z,4.97
2017-11-03T15:21:47.833Z,5.80
2017-11-03T15:24:16.869Z,6.90
2017-11-03T15:26:45.396Z,5.47
2017-11-03T15:29:14.696Z,6.10
2017-11-03T15:31:43.140Z,6.30
2017-11-03T15:34:12.027Z,6.47
2017-11-03T15:36:40.407Z,6.60
2017-11-03T15:39:08.696Z,5.80
2017-11-03T15:41:37.191Z,6.53
2017-11-03T15:44:05.540Z,5.90
2017-11-03T15:46:33.886Z,7.80
2017-11-03T15:49:02.289Z,7.50
2017-11-03T15:51:30.611Z,4.43
2017-11-03T15:53:58.914Z,5.93
2017-11-03T15:56:27.327Z,6.23
2017-11-03T15:58:55.612Z,4.90
2017-11-03T16:01:24.016Z,6.43
2017-11-03T16:03:52.381Z,4.50
2017-11-03T16:06:20.713Z,7.10
2017-11-03T16:08:49.030Z,9.50
2017-11-03T16:11:17.351Z,4.50
2017-11-03T16:13:46.216Z,8.20
2017-11-03T16:16:14.540Z,7.53
2017-11-03T16:18:42.855Z,4.67
2017-11-03T16:21:11.359Z,4.33
2017-11-03T16:23:39.774Z,8.30
2017-11-03T16:26:09.295Z,4.97
2017-11-03T16:28:37.584Z,5.30
2017-11-03T16:31:06.081Z,7.17
2017-11-03T16:33:34.366Z,6.07
2017-11-03T16:36:02.703Z,5.67
2017-11-03T16:38:31.299Z,4.67
2017-11-03T16:40:59.617Z,5.80
2017-11-03T16:43:28.024Z,5.00
2017-11-03T16:45:56.343Z,5.97
2017-11-03T16:48:24.619Z,6.47
2017-11-03T16:50:52.929Z,5.30
2017-11-03T16:53:21.232Z,8.13
2017-11-03T16:55:49.663Z,7.07
2017-11-03T16:58:18.064Z,7.30
2017-11-03T17:00:46.444Z,4.23
2017-11-03T17:03:14.865Z,6.43
2017-11-03T17:05:43.429Z,5.30
2017-11-03T17:08:12.183Z,5.93
2017-11-03T17:10:40.541Z,5.23
2017-11-03T17:13:09.088Z,5.10
2017-11-03T17:15:37.384Z,6.87
2017-11-03T17:18:05.665Z,11.10
2017-11-03T17:20:34.281Z,7.70
2017-11-03T17:23:02.616Z,10.67
2017-11-03T17:25:30.972Z,9.50
2017-11-03T17:27:59.386Z,5.37
2017-11-03T17:30:27.824Z,9.70
2017-11-03T17:32:56.202Z,6.90
2017-11-03T17:35:26.896Z,5.90
2017-11-03T17:37:55.333Z,6.00
2017-11-03T17:40:23.687Z,5.43
2017-11-03T17:42:51.996Z,4.67
2017-11-03T17:45:20.332Z,6.20
2017-11-03T17:47:48.751Z,6.30
2017-11-03T17:50:17.165Z,6.53
2017-11-03T17:52:45.736Z,4.80
2017-11-03T17:55:14.922Z,4.70
2017-11-03T17:57:43.304Z,4.80
2017-11-03T18:00:11.807Z,4.97
2017-11-03T18:02:40.071Z,6.37
2017-11-03T18:05:08.735Z,4.87
2017-11-03T18:07:37.170Z,5.50
2017-11-03T18:10:05.871Z,5.47
2017-11-03T18:12:34.614Z,6.83
2017-11-03T18:15:03.612Z,7.00
2017-11-03T18:17:32.644Z,9.63
2017-11-03T18:20:00.967Z,4.53
2017-11-03T18:22:29.399Z,7.10
2017-11-03T18:24:57.673Z,6.27
2017-11-03T18:27:26.052Z,5.60
2017-11-03T18:29:54.891Z,7.90
2017-11-03T18:32:23.195Z,8.73
2017-11-03T18:34:51.531Z,9.30
2017-11-03T18:37:20.139Z,5.83
2017-11-03T18:39:48.662Z,6.50
2017-11-03T18:42:17.024Z,6.17
2017-11-03T18:44:45.660Z,6.30
2017-11-03T18:47:13.994Z,10.80
2017-11-03T18:49:42.523Z,9.60
2017-11-03T18:52:11.860Z,11.80
2017-11-03T18:54:40.413Z,9.10
2017-11-03T18:57:08.726Z,8.23
2017-11-03T18:59:37.940Z,6.23
2017-11-03T19:02:15.221Z,7.70
2017-11-03T19:04:43.645Z,15.23
2017-11-03T19:07:12.165Z,11.50
2017-11-03T19:09:40.585Z,5.43
2017-11-03T19:12:09.123Z,6.63
2017-11-03T19:14:38.917Z,6.00
2017-11-03T19:17:08.678Z,7.07
2017-11-03T19:19:37.327Z,8.73
2017-11-03T19:22:05.652Z,5.50
2017-11-03T19:24:33.923Z,5.60
2017-11-03T19:27:02.656Z,7.80
2017-11-03T19:29:31.121Z,10.40
2017-11-03T19:32:00.104Z,7.97
2017-11-03T19:34:30.390Z,7.00
2017-11-03T19:36:58.773Z,13.00
2017-11-03T19:39:27.191Z,6.70
2017-11-03T19:41:55.925Z,6.57
2017-11-03T19:44:24.260Z,7.33
2017-11-03T19:46:52.769Z,6.23
2017-11-03T19:49:21.181Z,6.63
2017-11-03T19:51:49.675Z,7.10
2017-11-03T19:54:18.135Z,8.93
2017-11-03T19:56:46.473Z,6.13
2017-11-03T19:59:16.744Z,7.37
2017-11-03T20:01:45.280Z,6.10
2017-11-03T20:04:13.760Z,7.43
2017-11-03T20:06:42.148Z,7.23
2017-11-03T20:09:10.424Z,8.20
2017-11-03T20:11:39.302Z,9.93
2017-11-03T20:14:08.004Z,19.60
2017-11-03T20:16:36.764Z,8.07
2017-11-03T20:19:07.320Z,8.17
2017-11-03T20:21:36.086Z,8.17
2017-11-03T20:24:04.705Z,9.07
2017-11-03T20:26:33.157Z,7.37
2017-11-03T20:29:02.507Z,10.07
2017-11-03T20:31:30.965Z,7.10
2017-11-03T20:34:01.305Z,8.30
2017-11-03T20:36:29.785Z,7.60
2017-11-03T20:38:58.099Z,13.43
2017-11-03T20:41:27.179Z,8.87
2017-11-03T20:43:55.609Z,9.33
2017-11-03T20:46:24.104Z,7.93
2017-11-03T20:48:52.628Z,7.90
2017-11-03T20:51:21.140Z,8.57
2017-11-03T20:53:49.844Z,12.13
2017-11-03T20:56:18.294Z,8.73
2017-11-03T20:58:46.577Z,9.30
2017-11-03T21:01:14.963Z,6.63
2017-11-03T21:03:43.484Z,7.70
2017-11-03T21:06:12.565Z,9.07
2017-11-03T21:08:41.012Z,7.23
2017-11-03T21:11:09.454Z,7.47
2017-11-03T21:13:39.649Z,8.03
2017-11-03T21:16:08.332Z,13.27
2017-11-03T21:18:37.046Z,8.70
2017-11-03T21:21:05.712Z,8.27
2017-11-03T21:23:34.208Z,12.20
2017-11-03T21:26:03.165Z,7.60
2017-11-03T21:28:31.983Z,7.33
2017-11-03T21:31:00.393Z,8.30
2017-11-03T21:33:29.934Z,14.53
2017-11-03T21:35:58.726Z,8.20
2017-11-03T21:38:27.118Z,10.60
2017-11-03T21:40:55.869Z,8.17
2017-11-03T21:43:26.494Z,8.77
2017-11-03T21:45:55.250Z,10.77
2017-11-03T21:48:24.640Z,15.87
2017-11-03T21:50:56.318Z,10.03
2017-11-03T21:53:27.178Z,11.80
2017-11-03T21:55:55.891Z,11.10
2017-11-03T21:58:26.834Z,11.83
2017-11-03T22:00:55.679Z,12.33
2017-11-03T22:03:26.644Z,10.93
2017-11-03T22:05:56.526Z,9.97
2017-11-03T22:08:25.024Z,17.50
2017-11-03T22:10:53.449Z,13.50
2017-11-03T22:13:21.861Z,13.63
2017-11-03T22:15:50.321Z,11.33
2017-11-03T22:18:19.223Z,15.23
2017-11-03T22:20:47.737Z,13.77
2017-11-03T22:23:16.024Z,15.57
2017-11-03T22:25:44.328Z,16.30
2017-11-03T22:28:12.697Z,19.93
2017-11-03T22:30:41.144Z,16.57
2017-11-03T22:33:09.451Z,17.00
2017-11-03T22:35:38.046Z,16.57
2017-11-03T22:38:06.471Z,19.57
2017-11-03T22:40:34.798Z,18.27
2017-11-03T22:43:03.256Z,22.50
2017-11-03T22:45:31.583Z,18.13
2017-11-03T22:47:59.976Z,16.13
2017-11-03T22:50:28.279Z,17.83
2017-11-03T22:52:56.567Z,16.33
2017-11-03T22:55:24.876Z,16.30
2017-11-03T22:57:53.152Z,22.67
2017-11-03T23:00:22.050Z,19.87
2017-11-03T23:02:50.419Z,19.87
2017-11-03T23:05:18.730Z,16.40
2017-11-03T23:07:47.956Z,18.97
2017-11-03T23:10:22.929Z,17.30
2017-11-03T23:12:54.361Z,18.60
2017-11-03T23:15:23.016Z,19.50
2017-11-03T23:17:52.771Z,18.67
2017-11-03T23:20:23.580Z,16.70
2017-11-03T23:22:52.608Z,18.47
2017-11-03T23:25:23.065Z,25.13
2017-11-03T23:27:51.646Z,17.23
2017-11-03T23:30:20.742Z,22.00
2017-11-03T23:32:49.688Z,22.53
2017-11-03T23:35:18.149Z,19.07
2017-11-03T23:37:46.429Z,20.60
2017-11-03T23:40:14.782Z,16.13
2017-11-03T23:42:43.095Z,17.80
2017-11-03T23:45:11.455Z,18.00
2017-11-03T23:47:39.779Z,17.33
2017-11-03T23:50:08.350Z,19.10
2017-11-03T23:52:36.884Z,17.93
2017-11-03T23:55:05.200Z,18.80
2017-11-03T23:57:34.292Z,18.03
